createdAt,value
2023-04-10T00:00:02.587Z,2.8
2023-04-10T00:15:03.149Z,2.6
2023-04-10T00:30:02.474Z,2.7
2023-04-10T00:45:03.077Z,2.7
2023-04-10T01:00:02.356Z,2.5
2023-04-10T01:15:02.771Z,2.4
2023-04-10T01:30:02.185Z,2.4
2023-04-10T01:45:02.660Z,2.6
2023-04-10T02:00:03.298Z,2.9
2023-04-10T02:15:02.552Z,2.7
2023-04-10T02:30:03.193Z,2.7
2023-04-10T02:45:02.415Z,2.8
2023-04-10T03:00:02.847Z,2.7
2023-04-10T03:15:02.286Z,2.4
2023-04-10T03:30:02.736Z,2.2
2023-04-10T03:45:03.197Z,2.1
2023-04-10T04:00:02.621Z,1.9
2023-04-10T04:15:03.180Z,1.7
2023-04-10T04:45:02.936Z,1.5
2023-04-10T05:00:02.391Z,1.5
2023-04-10T05:15:02.819Z,1.7
2023-04-10T05:30:02.274Z,1.8
2023-04-10T05:45:02.711Z,2.5
2023-04-10T06:00:03.217Z,3.2
2023-04-10T06:15:02.623Z,3.9
2023-04-10T06:30:03.217Z,4.8
2023-04-10T06:45:02.449Z,6.1
2023-04-10T07:00:03.174Z,7.5
2023-04-10T07:15:02.319Z,9.4
2023-04-10T07:30:02.729Z,11.2
2023-04-10T07:45:03.253Z,12.7
2023-04-10T08:00:02.698Z,14.7
2023-04-10T08:15:03.259Z,16.1
2023-04-10T08:30:02.550Z,16.6
2023-04-10T08:45:02.947Z,16.0
2023-04-10T09:00:16.108Z,16.3
2023-04-10T09:15:02.810Z,17.1
2023-04-10T09:30:02.275Z,17.8
2023-04-10T09:45:02.720Z,18.2
2023-04-10T10:00:03.276Z,18.4
2023-04-10T10:15:02.586Z,19.2
2023-04-10T10:30:11.871Z,18.8
2023-04-10T10:45:02.467Z,19.3
2023-04-10T11:00:02.906Z,18.9
2023-04-10T11:15:02.487Z,18.3
2023-04-10T11:30:02.818Z,18.9
2023-04-10T11:45:02.280Z,19.0
2023-04-10T12:00:02.666Z,18.9
2023-04-10T12:15:03.280Z,19.2
2023-04-10T12:30:02.518Z,19.2
2023-04-10T12:45:02.984Z,19.3
2023-04-10T13:00:02.449Z,19.7
2023-04-10T13:15:02.924Z,19.2
2023-04-10T13:30:02.322Z,18.7
2023-04-10T13:45:02.764Z,18.6
2023-04-10T14:00:03.299Z,18.3
2023-04-10T14:15:02.582Z,18.5
2023-04-10T14:30:03.284Z,18.8
2023-04-10T14:45:02.509Z,18.5
2023-04-10T15:00:02.918Z,18.1
2023-04-10T15:15:02.391Z,17.7
2023-04-10T15:30:02.802Z,17.2
2023-04-10T15:45:03.317Z,16.9
2023-04-10T16:00:02.809Z,16.6
2023-04-10T16:15:02.319Z,16.3
2023-04-10T16:30:02.646Z,16.1
2023-04-10T16:45:03.036Z,16.1
2023-04-10T17:00:02.515Z,16.1
2023-04-10T17:15:02.907Z,16.0
2023-04-10T17:30:02.365Z,15.9
2023-04-10T17:45:02.789Z,15.8
2023-04-10T18:00:03.338Z,15.6
2023-04-10T18:15:02.702Z,15.6
2023-04-10T18:30:03.355Z,15.4
2023-04-10T18:45:02.560Z,15.4
2023-04-10T19:00:03.004Z,13.6
2023-04-10T19:15:02.436Z,12.1
2023-04-10T19:30:02.907Z,11.2
2023-04-10T19:45:02.369Z,10.8
2023-04-10T20:00:02.754Z,10.5
2023-04-10T20:15:03.363Z,10.5
2023-04-10T20:30:02.624Z,10.4
2023-04-10T20:45:03.088Z,10.4
2023-04-10T21:00:02.509Z,10.2
2023-04-10T21:15:02.995Z,9.8
2023-04-10T21:30:02.400Z,9.9
2023-04-10T21:45:02.846Z,9.8
2023-04-10T22:00:02.408Z,9.9
2023-04-10T22:15:02.692Z,9.6
2023-04-10T22:30:04.517Z,9.5
2023-04-10T22:45:03.617Z,9.3
2023-04-10T23:00:03.050Z,9.2
2023-04-10T23:15:02.482Z,9.1
2023-04-10T23:30:02.927Z,8.9
2023-04-10T23:45:02.409Z,8.8
